sensor_id;sensor_type;location;lat;lon;timestamp;pressure;altitude;pressure_sealevel;temperature;humidity
68855;BME280;69984;-43.570;172.580;2023-08-21T00:02:17;101124.06;;;13.56;55.56
68855;BME280;69984;-43.570;172.580;2023-08-21T00:04:44;101127.53;;;13.56;54.91
68855;BME280;69984;-43.570;172.580;2023-08-21T00:07:12;101119.63;;;13.56;56.30
68855;BME280;69984;-43.570;172.580;2023-08-21T00:09:39;101121.75;;;13.78;56.29
68855;BME280;69984;-43.570;172.580;2023-08-21T00:12:06;101112.50;;;13.74;55.97
68855;BME280;69984;-43.570;172.580;2023-08-21T00:14:33;101099.66;;;14.05;55.72
68855;BME280;69984;-43.570;172.580;2023-08-21T00:17:01;101111.81;;;13.72;57.56
68855;BME280;69984;-43.570;172.580;2023-08-21T00:19:29;101103.91;;;13.98;57.87
68855;BME280;69984;-43.570;172.580;2023-08-21T00:21:56;101132.66;;;13.58;57.96
68855;BME280;69984;-43.570;172.580;2023-08-21T00:24:24;101130.72;;;13.24;57.90
68855;BME280;69984;-43.570;172.580;2023-08-21T00:26:51;101117.66;;;13.32;57.82
68855;BME280;69984;-43.570;172.580;2023-08-21T00:29:18;101131.94;;;13.30;56.26
68855;BME280;69984;-43.570;172.580;2023-08-21T00:31:45;101132.78;;;13.56;56.23
68855;BME280;69984;-43.570;172.580;2023-08-21T00:34:12;101104.53;;;13.66;57.01
68855;BME280;69984;-43.570;172.580;2023-08-21T00:36:39;101106.41;;;14.08;55.93
68855;BME280;69984;-43.570;172.580;2023-08-21T00:39:06;101124.06;;;14.15;56.07
68855;BME280;69984;-43.570;172.580;2023-08-21T00:41:33;101157.75;;;13.95;54.57
68855;BME280;69984;-43.570;172.580;2023-08-21T00:44:00;101137.31;;;13.89;54.75
68855;BME280;69984;-43.570;172.580;2023-08-21T00:46:27;101136.16;;;13.92;53.50
68855;BME280;69984;-43.570;172.580;2023-08-21T00:48:54;101139.13;;;13.45;55.62
68855;BME280;69984;-43.570;172.580;2023-08-21T00:51:21;101138.94;;;13.90;54.24
68855;BME280;69984;-43.570;172.580;2023-08-21T00:53:49;101141.88;;;14.13;54.33
68855;BME280;69984;-43.570;172.580;2023-08-21T00:56:16;101127.34;;;14.09;53.02
68855;BME280;69984;-43.570;172.580;2023-08-21T00:58:44;101161.19;;;14.22;52.82
68855;BME280;69984;-43.570;172.580;2023-08-21T01:01:12;101136.31;;;13.90;53.75
68855;BME280;69984;-43.570;172.580;2023-08-21T01:03:42;101152.44;;;14.47;52.62
68855;BME280;69984;-43.570;172.580;2023-08-21T01:06:09;101122.00;;;14.69;52.80
68855;BME280;69984;-43.570;172.580;2023-08-21T01:08:42;101147.38;;;14.28;53.11
68855;BME280;69984;-43.570;172.580;2023-08-21T01:11:35;101134.75;;;14.39;52.73
68855;BME280;69984;-43.570;172.580;2023-08-21T01:16:32;101141.59;;;14.24;52.71
68855;BME280;69984;-43.570;172.580;2023-08-21T01:18:59;101144.88;;;14.52;52.39
68855;BME280;69984;-43.570;172.580;2023-08-21T01:21:28;101166.19;;;14.33;51.60
68855;BME280;69984;-43.570;172.580;2023-08-21T01:23:55;101160.25;;;14.31;51.77
68855;BME280;69984;-43.570;172.580;2023-08-21T01:26:22;101166.94;;;14.17;51.03
68855;BME280;69984;-43.570;172.580;2023-08-21T01:28:49;101152.66;;;14.28;51.13
68855;BME280;69984;-43.570;172.580;2023-08-21T01:31:33;101173.03;;;14.43;51.57
68855;BME280;69984;-43.570;172.580;2023-08-21T01:34:06;101172.88;;;14.95;50.40
68855;BME280;69984;-43.570;172.580;2023-08-21T01:36:34;101186.94;;;15.20;49.89
68855;BME280;69984;-43.570;172.580;2023-08-21T01:39:02;101179.13;;;14.94;48.34
68855;BME280;69984;-43.570;172.580;2023-08-21T01:41:29;101175.75;;;14.68;50.50
68855;BME280;69984;-43.570;172.580;2023-08-21T01:43:56;101187.56;;;14.97;49.07
68855;BME280;69984;-43.570;172.580;2023-08-21T01:46:24;101180.91;;;14.85;47.74
68855;BME280;69984;-43.570;172.580;2023-08-21T01:48:51;101204.44;;;14.11;49.33
68855;BME280;69984;-43.570;172.580;2023-08-21T01:51:19;101191.69;;;13.98;51.38
68855;BME280;69984;-43.570;172.580;2023-08-21T01:53:47;101183.50;;;13.58;51.77
68855;BME280;69984;-43.570;172.580;2023-08-21T01:56:14;101198.16;;;14.30;49.76
68855;BME280;69984;-43.570;172.580;2023-08-21T01:58:41;101191.38;;;14.61;49.04
68855;BME280;69984;-43.570;172.580;2023-08-21T02:01:08;101199.56;;;14.92;48.86
68855;BME280;69984;-43.570;172.580;2023-08-21T02:03:35;101211.00;;;15.09;47.65
68855;BME280;69984;-43.570;172.580;2023-08-21T02:06:02;101182.69;;;14.69;48.56
68855;BME280;69984;-43.570;172.580;2023-08-21T02:08:32;101193.88;;;15.13;48.33
68855;BME280;69984;-43.570;172.580;2023-08-21T02:11:00;101203.41;;;15.14;47.33
68855;BME280;69984;-43.570;172.580;2023-08-21T02:13:27;101206.78;;;14.40;49.15
68855;BME280;69984;-43.570;172.580;2023-08-21T02:15:54;101217.66;;;14.37;50.47
68855;BME280;69984;-43.570;172.580;2023-08-21T02:18:22;101211.91;;;14.41;48.69
68855;BME280;69984;-43.570;172.580;2023-08-21T02:20:49;101203.66;;;14.11;49.86
68855;BME280;69984;-43.570;172.580;2023-08-21T02:23:16;101231.50;;;14.13;50.15
68855;BME280;69984;-43.570;172.580;2023-08-21T02:25:43;101227.59;;;14.17;49.24
68855;BME280;69984;-43.570;172.580;2023-08-21T02:28:10;101237.34;;;14.92;48.78
68855;BME280;69984;-43.570;172.580;2023-08-21T02:30:41;101242.97;;;14.30;49.59
68855;BME280;69984;-43.570;172.580;2023-08-21T02:33:08;101252.44;;;13.36;52.23
68855;BME280;69984;-43.570;172.580;2023-08-21T02:35:35;101248.81;;;13.55;51.92
68855;BME280;69984;-43.570;172.580;2023-08-21T02:38:03;101248.81;;;13.55;51.77
68855;BME280;69984;-43.570;172.580;2023-08-21T02:40:30;101262.81;;;15.10;48.98
68855;BME280;69984;-43.570;172.580;2023-08-21T02:42:57;101268.69;;;14.54;48.17
68855;BME280;69984;-43.570;172.580;2023-08-21T02:45:24;101254.38;;;14.64;48.22
68855;BME280;69984;-43.570;172.580;2023-08-21T02:47:51;101274.47;;;14.99;46.40
68855;BME280;69984;-43.570;172.580;2023-08-21T02:50:18;101278.22;;;14.29;46.54
68855;BME280;69984;-43.570;172.580;2023-08-21T02:52:46;101277.59;;;14.86;46.64
68855;BME280;69984;-43.570;172.580;2023-08-21T02:55:13;101290.03;;;15.10;45.33
68855;BME280;69984;-43.570;172.580;2023-08-21T02:57:41;101276.50;;;15.05;46.12
68855;BME280;69984;-43.570;172.580;2023-08-21T03:00:09;101271.84;;;15.49;45.63
68855;BME280;69984;-43.570;172.580;2023-08-21T03:02:38;101287.13;;;15.29;45.93
68855;BME280;69984;-43.570;172.580;2023-08-21T03:05:09;101287.06;;;14.71;47.95
68855;BME280;69984;-43.570;172.580;2023-08-21T03:07:36;101303.97;;;14.09;49.89
68855;BME280;69984;-43.570;172.580;2023-08-21T03:10:04;101296.31;;;13.80;51.05
68855;BME280;69984;-43.570;172.580;2023-08-21T03:12:31;101290.28;;;13.88;51.80
68855;BME280;69984;-43.570;172.580;2023-08-21T03:14:58;101302.09;;;13.66;51.97
68855;BME280;69984;-43.570;172.580;2023-08-21T03:17:25;101302.53;;;13.62;52.49
68855;BME280;69984;-43.570;172.580;2023-08-21T03:19:52;101317.69;;;13.15;51.73
68855;BME280;69984;-43.570;172.580;2023-08-21T03:22:20;101305.13;;;13.54;52.18
68855;BME280;69984;-43.570;172.580;2023-08-21T03:24:47;101324.69;;;13.24;52.61
68855;BME280;69984;-43.570;172.580;2023-08-21T03:27:15;101330.47;;;13.00;52.77
68855;BME280;69984;-43.570;172.580;2023-08-21T03:29:45;101339.97;;;12.74;53.48
68855;BME280;69984;-43.570;172.580;2023-08-21T03:32:16;101332.69;;;13.32;53.26
68855;BME280;69984;-43.570;172.580;2023-08-21T03:34:44;101338.38;;;13.00;52.84
68855;BME280;69984;-43.570;172.580;2023-08-21T03:37:11;101344.25;;;13.21;53.15
68855;BME280;69984;-43.570;172.580;2023-08-21T03:39:38;101353.81;;;13.22;53.24
68855;BME280;69984;-43.570;172.580;2023-08-21T03:42:05;101347.66;;;13.31;53.10
68855;BME280;69984;-43.570;172.580;2023-08-21T03:44:32;101355.19;;;13.26;52.55
68855;BME280;69984;-43.570;172.580;2023-08-21T03:46:59;101373.31;;;13.57;53.01
68855;BME280;69984;-43.570;172.580;2023-08-21T03:49:26;101376.78;;;13.30;52.57
68855;BME280;69984;-43.570;172.580;2023-08-21T03:51:53;101381.44;;;12.99;52.94
68855;BME280;69984;-43.570;172.580;2023-08-21T03:54:20;101396.75;;;12.76;53.33
68855;BME280;69984;-43.570;172.580;2023-08-21T03:56:48;101384.53;;;12.94;53.25
68855;BME280;69984;-43.570;172.580;2023-08-21T03:59:15;101403.19;;;12.91;54.31
68855;BME280;69984;-43.570;172.580;2023-08-21T04:01:42;101408.47;;;12.91;53.49
68855;BME280;69984;-43.570;172.580;2023-08-21T04:04:09;101410.28;;;12.91;53.78
68855;BME280;69984;-43.570;172.580;2023-08-21T04:06:36;101421.97;;;12.69;53.29
68855;BME280;69984;-43.570;172.580;2023-08-21T04:09:03;101410.44;;;12.70;53.34
68855;BME280;69984;-43.570;172.580;2023-08-21T04:11:33;101415.56;;;12.81;52.75
68855;BME280;69984;-43.570;172.580;2023-08-21T04:14:00;101424.88;;;12.57;54.52
68855;BME280;69984;-43.570;172.580;2023-08-21T04:16:27;101430.16;;;12.47;54.49
68855;BME280;69984;-43.570;172.580;2023-08-21T04:18:58;101433.03;;;12.53;54.49
68855;BME280;69984;-43.570;172.580;2023-08-21T04:21:25;101498.78;;;12.53;53.15
68855;BME280;69984;-43.570;172.580;2023-08-21T04:23:52;101440.91;;;12.63;54.12
68855;BME280;69984;-43.570;172.580;2023-08-21T04:26:19;101446.06;;;12.36;54.02
68855;BME280;69984;-43.570;172.580;2023-08-21T04:28:47;101447.44;;;12.49;53.68
68855;BME280;69984;-43.570;172.580;2023-08-21T04:31:14;101447.44;;;12.49;54.77
68855;BME280;69984;-43.570;172.580;2023-08-21T04:33:41;101440.66;;;12.37;55.11
68855;BME280;69984;-43.570;172.580;2023-08-21T04:36:13;101446.47;;;12.50;55.19
68855;BME280;69984;-43.570;172.580;2023-08-21T04:38:41;101450.75;;;12.42;55.41
68855;BME280;69984;-43.570;172.580;2023-08-21T04:41:09;101454.66;;;12.47;56.03
68855;BME280;69984;-43.570;172.580;2023-08-21T04:43:36;101452.69;;;12.40;55.42
68855;BME280;69984;-43.570;172.580;2023-08-21T04:46:04;101473.31;;;12.25;56.19
68855;BME280;69984;-43.570;172.580;2023-08-21T04:48:32;101473.31;;;12.44;55.96
68855;BME280;69984;-43.570;172.580;2023-08-21T04:50:59;101488.25;;;12.53;55.80
68855;BME280;69984;-43.570;172.580;2023-08-21T04:53:26;101487.84;;;12.39;56.15
68855;BME280;69984;-43.570;172.580;2023-08-21T04:55:53;101483.97;;;12.52;55.94
68855;BME280;69984;-43.570;172.580;2023-08-21T04:58:20;101489.78;;;12.27;57.20
68855;BME280;69984;-43.570;172.580;2023-08-21T05:00:47;101504.72;;;12.17;57.87
68855;BME280;69984;-43.570;172.580;2023-08-21T05:03:17;101500.44;;;12.35;58.42
68855;BME280;69984;-43.570;172.580;2023-08-21T05:05:52;101514.59;;;11.94;59.47
68855;BME280;69984;-43.570;172.580;2023-08-21T05:08:22;101522.81;;;11.71;60.49
68855;BME280;69984;-43.570;172.580;2023-08-21T05:11:03;101519.34;;;11.70;60.93
68855;BME280;69984;-43.570;172.580;2023-08-21T05:13:30;101528.69;;;11.63;61.23
68855;BME280;69984;-43.570;172.580;2023-08-21T05:15:58;101535.97;;;11.50;60.96
68855;BME280;69984;-43.570;172.580;2023-08-21T05:18:25;101537.03;;;11.47;60.52
68855;BME280;69984;-43.570;172.580;2023-08-21T05:20:54;101552.19;;;11.65;60.54
68855;BME280;69984;-43.570;172.580;2023-08-21T05:23:21;101560.84;;;11.56;60.75
68855;BME280;69984;-43.570;172.580;2023-08-21T05:25:49;101557.63;;;11.42;61.65
68855;BME280;69984;-43.570;172.580;2023-08-21T05:28:16;101570.34;;;11.47;61.70
68855;BME280;69984;-43.570;172.580;2023-08-21T05:30:46;101571.97;;;11.38;62.52
68855;BME280;69984;-43.570;172.580;2023-08-21T05:33:13;101579.25;;;11.35;62.91
68855;BME280;69984;-43.570;172.580;2023-08-21T05:35:40;101581.69;;;11.27;63.16
68855;BME280;69984;-43.570;172.580;2023-08-21T05:38:07;101583.47;;;11.47;63.01
68855;BME280;69984;-43.570;172.580;2023-08-21T05:40:35;101596.84;;;11.23;63.09
68855;BME280;69984;-43.570;172.580;2023-08-21T05:43:02;101607.59;;;11.20;61.83
68855;BME280;69984;-43.570;172.580;2023-08-21T05:45:30;101607.28;;;11.14;62.11
68855;BME280;69984;-43.570;172.580;2023-08-21T05:47:58;101606.19;;;11.16;62.45
68855;BME280;69984;-43.570;172.580;2023-08-21T05:50:25;101605.56;;;11.24;62.20
68855;BME280;69984;-43.570;172.580;2023-08-21T05:52:52;101610.56;;;10.95;63.44
68855;BME280;69984;-43.570;172.580;2023-08-21T05:55:20;101621.41;;;11.01;63.77
68855;BME280;69984;-43.570;172.580;2023-08-21T05:57:47;101617.81;;;11.02;64.49
68855;BME280;69984;-43.570;172.580;2023-08-21T06:00:15;101633.16;;;10.86;64.06
68855;BME280;69984;-43.570;172.580;2023-08-21T06:02:42;101626.06;;;10.98;64.44
68855;BME280;69984;-43.570;172.580;2023-08-21T06:05:09;101641.28;;;10.83;64.12
68855;BME280;69984;-43.570;172.580;2023-08-21T06:07:36;101636.25;;;10.80;64.69
68855;BME280;69984;-43.570;172.580;2023-08-21T06:10:03;101639.94;;;10.89;64.74
68855;BME280;69984;-43.570;172.580;2023-08-21T06:12:31;101653.44;;;10.73;65.35
68855;BME280;69984;-43.570;172.580;2023-08-21T06:14:58;101650.69;;;10.75;64.18
68855;BME280;69984;-43.570;172.580;2023-08-21T06:17:26;101657.97;;;10.82;63.60
68855;BME280;69984;-43.570;172.580;2023-08-21T06:19:53;101668.53;;;10.92;63.39
68855;BME280;69984;-43.570;172.580;2023-08-21T06:22:21;101670.84;;;10.63;64.57
68855;BME280;69984;-43.570;172.580;2023-08-21T06:24:48;101667.41;;;10.63;65.26
68855;BME280;69984;-43.570;172.580;2023-08-21T06:27:16;101674.78;;;10.69;65.71
68855;BME280;69984;-43.570;172.580;2023-08-21T06:29:44;101703.88;;;10.55;66.34
68855;BME280;69984;-43.570;172.580;2023-08-21T06:32:11;101677.91;;;10.51;66.08
68855;BME280;69984;-43.570;172.580;2023-08-21T06:34:38;101686.13;;;10.58;66.26
68855;BME280;69984;-43.570;172.580;2023-08-21T06:37:05;101685.88;;;10.61;65.41
68855;BME280;69984;-43.570;172.580;2023-08-21T06:39:33;101690.53;;;10.58;64.35
68855;BME280;69984;-43.570;172.580;2023-08-21T06:42:01;101697.06;;;10.63;64.31
68855;BME280;69984;-43.570;172.580;2023-08-21T06:44:28;101701.00;;;10.69;64.62
68855;BME280;69984;-43.570;172.580;2023-08-21T06:46:55;101722.09;;;10.56;64.42
68855;BME280;69984;-43.570;172.580;2023-08-21T06:49:22;101717.94;;;10.65;64.85
68855;BME280;69984;-43.570;172.580;2023-08-21T06:51:50;101699.47;;;10.55;64.92
68855;BME280;69984;-43.570;172.580;2023-08-21T06:54:17;101716.50;;;10.61;64.49
68855;BME280;69984;-43.570;172.580;2023-08-21T06:56:44;101725.66;;;10.66;64.83
68855;BME280;69984;-43.570;172.580;2023-08-21T06:59:11;101727.94;;;10.48;65.74
68855;BME280;69984;-43.570;172.580;2023-08-21T07:01:38;101754.97;;;10.38;66.66
68855;BME280;69984;-43.570;172.580;2023-08-21T07:04:06;101743.56;;;10.50;67.14
68855;BME280;69984;-43.570;172.580;2023-08-21T07:06:33;101756.53;;;10.40;68.01
68855;BME280;69984;-43.570;172.580;2023-08-21T07:09:00;101760.84;;;10.30;68.12
68855;BME280;69984;-43.570;172.580;2023-08-21T07:11:27;101751.66;;;10.36;68.73
68855;BME280;69984;-43.570;172.580;2023-08-21T07:13:54;101773.34;;;10.27;68.88
68855;BME280;69984;-43.570;172.580;2023-08-21T07:16:22;101773.78;;;10.32;68.99
68855;BME280;69984;-43.570;172.580;2023-08-21T07:18:49;101773.47;;;10.47;69.21
68855;BME280;69984;-43.570;172.580;2023-08-21T07:21:16;101783.34;;;10.33;69.80
68855;BME280;69984;-43.570;172.580;2023-08-21T07:23:43;101775.59;;;10.20;70.16
68855;BME280;69984;-43.570;172.580;2023-08-21T07:26:10;101790.69;;;10.28;69.43
68855;BME280;69984;-43.570;172.580;2023-08-21T07:28:37;101805.78;;;10.13;69.88
68855;BME280;69984;-43.570;172.580;2023-08-21T07:31:04;101801.19;;;10.17;69.56
68855;BME280;69984;-43.570;172.580;2023-08-21T07:33:31;101815.09;;;10.17;69.60
68855;BME280;69984;-43.570;172.580;2023-08-21T07:36:01;101808.59;;;9.99;69.50
68855;BME280;69984;-43.570;172.580;2023-08-21T07:38:28;101820.91;;;10.10;70.29
68855;BME280;69984;-43.570;172.580;2023-08-21T07:41:07;101823.53;;;10.10;69.68
68855;BME280;69984;-43.570;172.580;2023-08-21T07:43:43;101849.81;;;10.08;70.24
68855;BME280;69984;-43.570;172.580;2023-08-21T07:46:12;101839.28;;;10.21;69.97
68855;BME280;69984;-43.570;172.580;2023-08-21T07:48:45;101861.97;;;10.09;69.50
68855;BME280;69984;-43.570;172.580;2023-08-21T07:51:12;101861.13;;;10.09;70.08
68855;BME280;69984;-43.570;172.580;2023-08-21T07:53:39;101856.84;;;10.08;69.69
68855;BME280;69984;-43.570;172.580;2023-08-21T07:56:07;101879.78;;;10.04;69.39
68855;BME280;69984;-43.570;172.580;2023-08-21T07:58:34;101862.53;;;10.25;69.38
68855;BME280;69984;-43.570;172.580;2023-08-21T08:01:01;101866.53;;;10.18;69.27
68855;BME280;69984;-43.570;172.580;2023-08-21T08:03:31;101868.31;;;10.18;68.96
68855;BME280;69984;-43.570;172.580;2023-08-21T08:05:59;101867.06;;;10.11;68.40
68855;BME280;69984;-43.570;172.580;2023-08-21T08:08:26;101887.88;;;10.01;69.41
68855;BME280;69984;-43.570;172.580;2023-08-21T08:10:54;101887.31;;;10.09;69.31
68855;BME280;69984;-43.570;172.580;2023-08-21T08:13:21;101895.88;;;10.11;68.74
68855;BME280;69984;-43.570;172.580;2023-08-21T08:15:48;101902.28;;;10.07;69.72
68855;BME280;69984;-43.570;172.580;2023-08-21T08:18:15;101914.09;;;10.25;69.19
68855;BME280;69984;-43.570;172.580;2023-08-21T08:20:42;101915.41;;;10.07;69.60
68855;BME280;69984;-43.570;172.580;2023-08-21T08:23:10;101918.53;;;10.12;69.10
68855;BME280;69984;-43.570;172.580;2023-08-21T08:25:37;101913.38;;;10.10;69.94
68855;BME280;69984;-43.570;172.580;2023-08-21T08:28:04;101919.81;;;10.06;70.47
68855;BME280;69984;-43.570;172.580;2023-08-21T08:30:31;101921.16;;;10.12;69.56
68855;BME280;69984;-43.570;172.580;2023-08-21T08:32:58;101916.63;;;10.14;69.30
68855;BME280;69984;-43.570;172.580;2023-08-21T08:35:25;101929.34;;;10.07;69.01
68855;BME280;69984;-43.570;172.580;2023-08-21T08:37:52;101938.03;;;10.08;68.69
68855;BME280;69984;-43.570;172.580;2023-08-21T08:40:19;101930.34;;;10.17;68.21
68855;BME280;69984;-43.570;172.580;2023-08-21T08:42:47;101937.50;;;10.15;68.48
68855;BME280;69984;-43.570;172.580;2023-08-21T08:45:14;101939.19;;;10.16;68.53
68855;BME280;69984;-43.570;172.580;2023-08-21T08:47:42;101934.78;;;10.17;68.86
68855;BME280;69984;-43.570;172.580;2023-08-21T08:50:09;101942.25;;;10.34;68.53
68855;BME280;69984;-43.570;172.580;2023-08-21T08:52:39;101948.75;;;10.04;68.60
68855;BME280;69984;-43.570;172.580;2023-08-21T08:55:06;101953.44;;;10.12;68.34
68855;BME280;69984;-43.570;172.580;2023-08-21T08:57:34;101965.66;;;9.88;68.43
68855;BME280;69984;-43.570;172.580;2023-08-21T09:00:02;101969.63;;;9.93;68.14
68855;BME280;69984;-43.570;172.580;2023-08-21T09:02:30;101966.69;;;9.98;67.90
68855;BME280;69984;-43.570;172.580;2023-08-21T09:04:57;101962.06;;;10.01;67.69
68855;BME280;69984;-43.570;172.580;2023-08-21T09:07:25;101964.44;;;10.04;67.80
68855;BME280;69984;-43.570;172.580;2023-08-21T09:09:52;101985.19;;;10.08;67.06
68855;BME280;69984;-43.570;172.580;2023-08-21T09:12:20;101983.88;;;9.89;67.49
68855;BME280;69984;-43.570;172.580;2023-08-21T09:14:47;101991.13;;;9.86;67.90
68855;BME280;69984;-43.570;172.580;2023-08-21T09:17:15;101985.94;;;10.10;66.91
68855;BME280;69984;-43.570;172.580;2023-08-21T09:19:44;101981.94;;;10.04;66.56
68855;BME280;69984;-43.570;172.580;2023-08-21T09:22:18;101989.84;;;9.91;66.39
68855;BME280;69984;-43.570;172.580;2023-08-21T09:25:05;101991.50;;;9.92;66.01
68855;BME280;69984;-43.570;172.580;2023-08-21T09:27:34;101991.41;;;9.94;65.64
68855;BME280;69984;-43.570;172.580;2023-08-21T09:30:05;101987.41;;;10.01;66.05
68855;BME280;69984;-43.570;172.580;2023-08-21T09:32:56;101996.94;;;10.02;66.60
68855;BME280;69984;-43.570;172.580;2023-08-21T09:35:27;101990.56;;;9.93;66.49
68855;BME280;69984;-43.570;172.580;2023-08-21T09:37:54;101992.88;;;9.85;66.11
68855;BME280;69984;-43.570;172.580;2023-08-21T09:40:22;101988.94;;;9.80;65.77
68855;BME280;69984;-43.570;172.580;2023-08-21T09:42:53;101996.75;;;9.92;65.40
68855;BME280;69984;-43.570;172.580;2023-08-21T09:45:24;102008.28;;;9.90;65.10
68855;BME280;69984;-43.570;172.580;2023-08-21T09:47:52;102005.13;;;9.97;64.98
68855;BME280;69984;-43.570;172.580;2023-08-21T09:50:20;102016.22;;;10.01;65.13
68855;BME280;69984;-43.570;172.580;2023-08-21T09:52:47;102010.81;;;9.91;65.63
68855;BME280;69984;-43.570;172.580;2023-08-21T09:55:15;102011.03;;;9.88;65.33
68855;BME280;69984;-43.570;172.580;2023-08-21T09:57:42;102010.38;;;9.97;65.39
68855;BME280;69984;-43.570;172.580;2023-08-21T10:00:10;102020.63;;;10.00;65.45
68855;BME280;69984;-43.570;172.580;2023-08-21T10:02:52;102019.69;;;10.01;65.61
68855;BME280;69984;-43.570;172.580;2023-08-21T10:05:20;102026.53;;;9.91;65.69
68855;BME280;69984;-43.570;172.580;2023-08-21T10:07:49;102041.47;;;10.02;65.38
68855;BME280;69984;-43.570;172.580;2023-08-21T10:10:17;102030.59;;;9.95;66.08
68855;BME280;69984;-43.570;172.580;2023-08-21T10:12:44;102033.75;;;9.88;65.68
68855;BME280;69984;-43.570;172.580;2023-08-21T10:15:12;102037.28;;;9.99;65.65
68855;BME280;69984;-43.570;172.580;2023-08-21T10:17:39;102052.31;;;9.85;65.45
68855;BME280;69984;-43.570;172.580;2023-08-21T10:20:07;102033.41;;;10.05;65.34
68855;BME280;69984;-43.570;172.580;2023-08-21T10:22:47;102045.16;;;9.87;66.07
68855;BME280;69984;-43.570;172.580;2023-08-21T10:25:23;102058.66;;;9.93;65.97
68855;BME280;69984;-43.570;172.580;2023-08-21T10:27:56;102049.94;;;10.06;65.79
68855;BME280;69984;-43.570;172.580;2023-08-21T10:30:25;102053.34;;;9.95;66.42
68855;BME280;69984;-43.570;172.580;2023-08-21T10:32:55;102062.56;;;9.75;66.48
68855;BME280;69984;-43.570;172.580;2023-08-21T10:35:32;102055.66;;;9.87;66.55
68855;BME280;69984;-43.570;172.580;2023-08-21T10:38:12;102059.72;;;9.78;66.78
68855;BME280;69984;-43.570;172.580;2023-08-21T10:40:43;102059.72;;;9.91;66.94
68855;BME280;69984;-43.570;172.580;2023-08-21T10:43:38;102076.50;;;9.76;67.18
68855;BME280;69984;-43.570;172.580;2023-08-21T10:46:10;102061.72;;;9.87;67.39
68855;BME280;69984;-43.570;172.580;2023-08-21T10:48:38;102069.25;;;9.92;66.96
68855;BME280;69984;-43.570;172.580;2023-08-21T10:51:07;102070.06;;;9.92;66.74
68855;BME280;69984;-43.570;172.580;2023-08-21T10:53:35;102080.47;;;9.94;68.21
68855;BME280;69984;-43.570;172.580;2023-08-21T10:56:05;102081.19;;;9.96;68.46
68855;BME280;69984;-43.570;172.580;2023-08-21T10:58:42;102078.28;;;9.75;70.27
68855;BME280;69984;-43.570;172.580;2023-08-21T11:01:10;102077.34;;;9.64;71.13
68855;BME280;69984;-43.570;172.580;2023-08-21T11:03:40;102078.28;;;9.63;71.35
68855;BME280;69984;-43.570;172.580;2023-08-21T11:06:10;102086.66;;;9.68;71.33
68855;BME280;69984;-43.570;172.580;2023-08-21T11:08:37;102084.59;;;9.60;70.54
68855;BME280;69984;-43.570;172.580;2023-08-21T11:11:05;102090.63;;;9.61;70.11
68855;BME280;69984;-43.570;172.580;2023-08-21T11:13:33;102090.63;;;9.48;69.58
68855;BME280;69984;-43.570;172.580;2023-08-21T11:16:01;102087.84;;;9.64;68.60
68855;BME280;69984;-43.570;172.580;2023-08-21T11:18:38;102088.97;;;9.72;68.36
68855;BME280;69984;-43.570;172.580;2023-08-21T11:21:07;102089.78;;;9.47;69.05
68855;BME280;69984;-43.570;172.580;2023-08-21T11:23:39;102090.44;;;9.64;68.46
68855;BME280;69984;-43.570;172.580;2023-08-21T11:26:10;102105.84;;;9.81;67.50
68855;BME280;69984;-43.570;172.580;2023-08-21T11:28:38;102097.66;;;9.73;68.01
68855;BME280;69984;-43.570;172.580;2023-08-21T11:31:06;102097.34;;;9.65;68.33
68855;BME280;69984;-43.570;172.580;2023-08-21T11:33:33;102090.72;;;9.46;68.00
68855;BME280;69984;-43.570;172.580;2023-08-21T11:36:05;102106.56;;;9.58;67.51
68855;BME280;69984;-43.570;172.580;2023-08-21T11:38:32;102099.66;;;9.57;67.76
68855;BME280;69984;-43.570;172.580;2023-08-21T11:41:01;102106.56;;;9.58;66.81
68855;BME280;69984;-43.570;172.580;2023-08-21T11:43:37;102110.66;;;9.49;66.89
68855;BME280;69984;-43.570;172.580;2023-08-21T11:46:06;102112.53;;;9.60;66.53
68855;BME280;69984;-43.570;172.580;2023-08-21T11:48:35;102115.38;;;9.57;66.26
68855;BME280;69984;-43.570;172.580;2023-08-21T11:51:02;102117.44;;;9.51;65.57
68855;BME280;69984;-43.570;172.580;2023-08-21T11:53:34;102119.13;;;9.52;64.57
68855;BME280;69984;-43.570;172.580;2023-08-21T11:56:01;102126.31;;;9.36;64.77
68855;BME280;69984;-43.570;172.580;2023-08-21T11:58:29;102129.13;;;9.33;65.52
68855;BME280;69984;-43.570;172.580;2023-08-21T12:01:04;102128.66;;;9.66;64.36
68855;BME280;69984;-43.570;172.580;2023-08-21T12:03:39;102131.78;;;9.59;63.80
68855;BME280;69984;-43.570;172.580;2023-08-21T12:06:08;102132.34;;;9.64;62.86
68855;BME280;69984;-43.570;172.580;2023-08-21T12:08:36;102139.22;;;9.65;62.68
68855;BME280;69984;-43.570;172.580;2023-08-21T12:11:04;102139.97;;;9.79;62.02
68855;BME280;69984;-43.570;172.580;2023-08-21T12:13:31;102143.72;;;9.75;63.00
68855;BME280;69984;-43.570;172.580;2023-08-21T12:15:58;102146.66;;;9.96;62.16
68855;BME280;69984;-43.570;172.580;2023-08-21T12:18:25;102147.28;;;9.87;62.24
68855;BME280;69984;-43.570;172.580;2023-08-21T12:20:52;102155.47;;;9.70;62.72
68855;BME280;69984;-43.570;172.580;2023-08-21T12:23:19;102151.38;;;9.91;63.19
68855;BME280;69984;-43.570;172.580;2023-08-21T12:25:47;102156.22;;;9.84;62.58
68855;BME280;69984;-43.570;172.580;2023-08-21T12:28:14;102156.19;;;9.72;62.66
68855;BME280;69984;-43.570;172.580;2023-08-21T12:30:41;102158.81;;;9.84;62.71
68855;BME280;69984;-43.570;172.580;2023-08-21T12:33:08;102161.53;;;9.83;62.48